sensor_id;sensor_type;location;lat;lon;timestamp;P1;durP1;ratioP1;P2;durP2;ratioP2
4698;SDS011;33708;49.466;11.176;2022-10-16T00:01:13;11.80;;;1.73;;
4698;SDS011;33708;49.466;11.176;2022-10-16T00:03:40;10.20;;;1.97;;
4698;SDS011;33708;49.466;11.176;2022-10-16T00:06:07;8.30;;;1.70;;
4698;SDS011;33708;49.466;11.176;2022-10-16T00:08:33;10.10;;;2.17;;
4698;SDS011;33708;49.466;11.176;2022-10-16T00:11:10;11.53;;;1.90;;
4698;SDS011;33708;49.466;11.176;2022-10-16T00:13:39;17.87;;;2.00;;
4698;SDS011;33708;49.466;11.176;2022-10-16T00:16:06;12.43;;;2.00;;
4698;SDS011;33708;49.466;11.176;2022-10-16T00:18:32;7.50;;;2.17;;
4698;SDS011;33708;49.466;11.176;2022-10-16T00:21:09;6.90;;;1.87;;
4698;SDS011;33708;49.466;11.176;2022-10-16T00:23:40;6.90;;;1.80;;
4698;SDS011;33708;49.466;11.176;2022-10-16T00:26:08;9.47;;;1.80;;
4698;SDS011;33708;49.466;11.176;2022-10-16T00:28:35;8.47;;;1.63;;
4698;SDS011;33708;49.466;11.176;2022-10-16T00:31:09;6.93;;;1.60;;
4698;SDS011;33708;49.466;11.176;2022-10-16T00:33:36;6.70;;;1.70;;
4698;SDS011;33708;49.466;11.176;2022-10-16T00:36:04;7.27;;;1.70;;
4698;SDS011;33708;49.466;11.176;2022-10-16T00:38:30;9.63;;;2.47;;
4698;SDS011;33708;49.466;11.176;2022-10-16T00:40:56;10.67;;;1.77;;
4698;SDS011;33708;49.466;11.176;2022-10-16T00:46:15;7.30;;;1.83;;
4698;SDS011;33708;49.466;11.176;2022-10-16T00:48:42;11.80;;;2.00;;
4698;SDS011;33708;49.466;11.176;2022-10-16T00:51:12;8.70;;;1.80;;
4698;SDS011;33708;49.466;11.176;2022-10-16T00:53:37;7.47;;;1.70;;
4698;SDS011;33708;49.466;11.176;2022-10-16T00:56:03;11.03;;;2.07;;
4698;SDS011;33708;49.466;11.176;2022-10-16T00:58:29;8.93;;;1.93;;
4698;SDS011;33708;49.466;11.176;2022-10-16T01:00:54;15.33;;;2.17;;
4698;SDS011;33708;49.466;11.176;2022-10-16T01:03:28;11.63;;;2.53;;
4698;SDS011;33708;49.466;11.176;2022-10-16T01:06:09;8.17;;;2.10;;
4698;SDS011;33708;49.466;11.176;2022-10-16T01:11:34;8.73;;;1.73;;
4698;SDS011;33708;49.466;11.176;2022-10-16T01:14:11;12.10;;;1.83;;
4698;SDS011;33708;49.466;11.176;2022-10-16T01:17:01;12.73;;;2.00;;
4698;SDS011;33708;49.466;11.176;2022-10-16T01:19:36;7.50;;;1.80;;
4698;SDS011;33708;49.466;11.176;2022-10-16T01:22:46;8.00;;;2.00;;
4698;SDS011;33708;49.466;11.176;2022-10-16T01:28:55;15.97;;;2.03;;
4698;SDS011;33708;49.466;11.176;2022-10-16T01:31:31;13.47;;;1.73;;
4698;SDS011;33708;49.466;11.176;2022-10-16T01:34:14;11.30;;;2.93;;
4698;SDS011;33708;49.466;11.176;2022-10-16T01:36:49;10.07;;;1.30;;
4698;SDS011;33708;49.466;11.176;2022-10-16T01:39:21;6.97;;;1.70;;
4698;SDS011;33708;49.466;11.176;2022-10-16T01:42:13;9.87;;;1.97;;
4698;SDS011;33708;49.466;11.176;2022-10-16T01:44:38;7.43;;;2.10;;
4698;SDS011;33708;49.466;11.176;2022-10-16T01:47:07;8.83;;;2.00;;
4698;SDS011;33708;49.466;11.176;2022-10-16T01:49:36;7.50;;;2.07;;
4698;SDS011;33708;49.466;11.176;2022-10-16T01:52:05;9.47;;;1.80;;
4698;SDS011;33708;49.466;11.176;2022-10-16T01:54:37;16.47;;;1.67;;
4698;SDS011;33708;49.466;11.176;2022-10-16T01:57:07;9.00;;;2.00;;
4698;SDS011;33708;49.466;11.176;2022-10-16T01:59:35;10.93;;;2.10;;
4698;SDS011;33708;49.466;11.176;2022-10-16T02:02:06;10.73;;;2.07;;
4698;SDS011;33708;49.466;11.176;2022-10-16T02:04:36;7.70;;;2.03;;
4698;SDS011;33708;49.466;11.176;2022-10-16T02:07:23;10.30;;;1.90;;
4698;SDS011;33708;49.466;11.176;2022-10-16T02:09:48;12.77;;;2.10;;
4698;SDS011;33708;49.466;11.176;2022-10-16T02:12:16;6.10;;;1.77;;
4698;SDS011;33708;49.466;11.176;2022-10-16T02:14:48;10.63;;;1.90;;
4698;SDS011;33708;49.466;11.176;2022-10-16T02:17:15;11.77;;;1.60;;
4698;SDS011;33708;49.466;11.176;2022-10-16T02:19:42;9.03;;;1.97;;
4698;SDS011;33708;49.466;11.176;2022-10-16T02:22:22;7.93;;;2.07;;
4698;SDS011;33708;49.466;11.176;2022-10-16T02:27:30;5.40;;;1.37;;
4698;SDS011;33708;49.466;11.176;2022-10-16T02:30:19;6.77;;;1.80;;
4698;SDS011;33708;49.466;11.176;2022-10-16T02:32:51;9.60;;;1.90;;
4698;SDS011;33708;49.466;11.176;2022-10-16T02:35:18;7.60;;;1.67;;
4698;SDS011;33708;49.466;11.176;2022-10-16T02:37:46;16.03;;;1.70;;
4698;SDS011;33708;49.466;11.176;2022-10-16T02:40:13;7.00;;;2.03;;
4698;SDS011;33708;49.466;11.176;2022-10-16T02:42:40;6.10;;;1.60;;
4698;SDS011;33708;49.466;11.176;2022-10-16T02:45:07;8.53;;;1.50;;
4698;SDS011;33708;49.466;11.176;2022-10-16T02:47:34;12.53;;;1.90;;
4698;SDS011;33708;49.466;11.176;2022-10-16T02:50:00;9.90;;;1.50;;
4698;SDS011;33708;49.466;11.176;2022-10-16T02:52:26;8.20;;;1.47;;
4698;SDS011;33708;49.466;11.176;2022-10-16T02:54:51;10.83;;;2.10;;
4698;SDS011;33708;49.466;11.176;2022-10-16T02:57:17;6.63;;;1.30;;
4698;SDS011;33708;49.466;11.176;2022-10-16T02:59:43;8.30;;;1.97;;
4698;SDS011;33708;49.466;11.176;2022-10-16T03:02:09;12.73;;;1.53;;
4698;SDS011;33708;49.466;11.176;2022-10-16T03:04:35;9.63;;;1.93;;
4698;SDS011;33708;49.466;11.176;2022-10-16T03:07:00;18.93;;;2.03;;
4698;SDS011;33708;49.466;11.176;2022-10-16T03:09:26;9.63;;;1.50;;
4698;SDS011;33708;49.466;11.176;2022-10-16T03:11:51;7.43;;;1.73;;
4698;SDS011;33708;49.466;11.176;2022-10-16T03:14:17;16.00;;;2.00;;
4698;SDS011;33708;49.466;11.176;2022-10-16T03:16:43;14.67;;;1.70;;
4698;SDS011;33708;49.466;11.176;2022-10-16T03:19:08;8.07;;;1.83;;
4698;SDS011;33708;49.466;11.176;2022-10-16T03:21:34;8.10;;;1.77;;
4698;SDS011;33708;49.466;11.176;2022-10-16T03:23:59;12.43;;;1.83;;
4698;SDS011;33708;49.466;11.176;2022-10-16T03:26:25;9.70;;;1.67;;
4698;SDS011;33708;49.466;11.176;2022-10-16T03:28:50;5.90;;;1.50;;
4698;SDS011;33708;49.466;11.176;2022-10-16T03:31:16;8.60;;;1.80;;
4698;SDS011;33708;49.466;11.176;2022-10-16T03:33:42;8.27;;;2.10;;
4698;SDS011;33708;49.466;11.176;2022-10-16T03:36:07;11.93;;;2.33;;
4698;SDS011;33708;49.466;11.176;2022-10-16T03:38:33;7.97;;;2.10;;
4698;SDS011;33708;49.466;11.176;2022-10-16T03:40:59;8.10;;;2.00;;
4698;SDS011;33708;49.466;11.176;2022-10-16T03:43:24;12.23;;;1.83;;
4698;SDS011;33708;49.466;11.176;2022-10-16T03:45:50;9.60;;;1.80;;
4698;SDS011;33708;49.466;11.176;2022-10-16T03:48:17;9.13;;;2.00;;
4698;SDS011;33708;49.466;11.176;2022-10-16T03:50:43;5.70;;;1.67;;
4698;SDS011;33708;49.466;11.176;2022-10-16T03:53:09;8.77;;;1.93;;
4698;SDS011;33708;49.466;11.176;2022-10-16T03:55:35;7.07;;;1.47;;
4698;SDS011;33708;49.466;11.176;2022-10-16T03:58:01;7.80;;;1.90;;
4698;SDS011;33708;49.466;11.176;2022-10-16T04:00:26;9.67;;;1.53;;
4698;SDS011;33708;49.466;11.176;2022-10-16T04:02:52;8.47;;;1.63;;
4698;SDS011;33708;49.466;11.176;2022-10-16T04:05:18;7.20;;;1.50;;
4698;SDS011;33708;49.466;11.176;2022-10-16T04:07:43;6.70;;;1.67;;
4698;SDS011;33708;49.466;11.176;2022-10-16T04:10:09;5.23;;;1.20;;
4698;SDS011;33708;49.466;11.176;2022-10-16T04:12:35;10.63;;;1.60;;
4698;SDS011;33708;49.466;11.176;2022-10-16T04:15:01;10.60;;;1.90;;
4698;SDS011;33708;49.466;11.176;2022-10-16T04:17:26;11.70;;;1.80;;
4698;SDS011;33708;49.466;11.176;2022-10-16T04:19:52;10.73;;;1.53;;
4698;SDS011;33708;49.466;11.176;2022-10-16T04:22:17;8.90;;;1.80;;
4698;SDS011;33708;49.466;11.176;2022-10-16T04:24:43;6.73;;;2.00;;
4698;SDS011;33708;49.466;11.176;2022-10-16T04:27:09;9.00;;;2.43;;
4698;SDS011;33708;49.466;11.176;2022-10-16T04:29:34;12.63;;;2.17;;
4698;SDS011;33708;49.466;11.176;2022-10-16T04:32:00;6.90;;;1.73;;
4698;SDS011;33708;49.466;11.176;2022-10-16T04:34:25;6.57;;;1.83;;
4698;SDS011;33708;49.466;11.176;2022-10-16T04:36:51;9.37;;;1.63;;
4698;SDS011;33708;49.466;11.176;2022-10-16T04:39:17;6.10;;;1.53;;
4698;SDS011;33708;49.466;11.176;2022-10-16T04:41:42;17.00;;;2.20;;
4698;SDS011;33708;49.466;11.176;2022-10-16T04:44:08;10.50;;;1.80;;
4698;SDS011;33708;49.466;11.176;2022-10-16T04:46:34;8.93;;;2.17;;
4698;SDS011;33708;49.466;11.176;2022-10-16T04:48:59;14.30;;;1.87;;
4698;SDS011;33708;49.466;11.176;2022-10-16T04:51:25;8.17;;;1.50;;
4698;SDS011;33708;49.466;11.176;2022-10-16T04:53:52;8.80;;;2.17;;
4698;SDS011;33708;49.466;11.176;2022-10-16T04:56:19;10.47;;;1.93;;
4698;SDS011;33708;49.466;11.176;2022-10-16T04:58:45;6.07;;;1.60;;
4698;SDS011;33708;49.466;11.176;2022-10-16T05:01:11;7.47;;;2.00;;
4698;SDS011;33708;49.466;11.176;2022-10-16T05:03:37;6.67;;;2.00;;
4698;SDS011;33708;49.466;11.176;2022-10-16T05:06:04;14.07;;;2.20;;
4698;SDS011;33708;49.466;11.176;2022-10-16T05:08:31;6.97;;;1.60;;
4698;SDS011;33708;49.466;11.176;2022-10-16T05:10:56;16.20;;;2.27;;
4698;SDS011;33708;49.466;11.176;2022-10-16T05:13:22;13.87;;;2.43;;
4698;SDS011;33708;49.466;11.176;2022-10-16T05:15:48;9.10;;;2.00;;
4698;SDS011;33708;49.466;11.176;2022-10-16T05:18:14;12.40;;;2.23;;
4698;SDS011;33708;49.466;11.176;2022-10-16T05:20:41;8.07;;;2.20;;
4698;SDS011;33708;49.466;11.176;2022-10-16T05:23:07;9.80;;;2.43;;
4698;SDS011;33708;49.466;11.176;2022-10-16T05:25:35;10.60;;;2.27;;
4698;SDS011;33708;49.466;11.176;2022-10-16T05:28:00;10.13;;;2.80;;
4698;SDS011;33708;49.466;11.176;2022-10-16T05:30:26;9.80;;;1.93;;
4698;SDS011;33708;49.466;11.176;2022-10-16T05:32:52;7.80;;;2.00;;
4698;SDS011;33708;49.466;11.176;2022-10-16T05:35:18;7.80;;;2.27;;
4698;SDS011;33708;49.466;11.176;2022-10-16T05:37:44;10.30;;;1.87;;
4698;SDS011;33708;49.466;11.176;2022-10-16T05:40:10;10.80;;;2.17;;
4698;SDS011;33708;49.466;11.176;2022-10-16T05:42:37;7.50;;;1.80;;
4698;SDS011;33708;49.466;11.176;2022-10-16T05:45:04;8.53;;;1.93;;
4698;SDS011;33708;49.466;11.176;2022-10-16T05:47:31;13.13;;;2.43;;
4698;SDS011;33708;49.466;11.176;2022-10-16T05:49:57;9.77;;;2.17;;
4698;SDS011;33708;49.466;11.176;2022-10-16T05:52:22;23.07;;;2.77;;
4698;SDS011;33708;49.466;11.176;2022-10-16T05:54:48;14.27;;;1.90;;
4698;SDS011;33708;49.466;11.176;2022-10-16T05:57:14;14.40;;;2.13;;
4698;SDS011;33708;49.466;11.176;2022-10-16T05:59:40;6.50;;;2.00;;
4698;SDS011;33708;49.466;11.176;2022-10-16T06:02:05;8.43;;;2.53;;
4698;SDS011;33708;49.466;11.176;2022-10-16T06:04:33;8.20;;;1.90;;
4698;SDS011;33708;49.466;11.176;2022-10-16T06:06:58;9.53;;;2.57;;
4698;SDS011;33708;49.466;11.176;2022-10-16T06:09:27;8.33;;;2.40;;
4698;SDS011;33708;49.466;11.176;2022-10-16T06:11:52;8.30;;;2.40;;
4698;SDS011;33708;49.466;11.176;2022-10-16T06:14:18;10.20;;;2.50;;
4698;SDS011;33708;49.466;11.176;2022-10-16T06:16:43;8.40;;;1.90;;
4698;SDS011;33708;49.466;11.176;2022-10-16T06:19:09;7.63;;;2.03;;
4698;SDS011;33708;49.466;11.176;2022-10-16T06:21:35;6.63;;;2.20;;
4698;SDS011;33708;49.466;11.176;2022-10-16T06:24:00;6.80;;;2.00;;
4698;SDS011;33708;49.466;11.176;2022-10-16T06:26:27;8.47;;;2.27;;
4698;SDS011;33708;49.466;11.176;2022-10-16T06:28:57;15.17;;;2.70;;
4698;SDS011;33708;49.466;11.176;2022-10-16T06:31:24;12.43;;;1.97;;
4698;SDS011;33708;49.466;11.176;2022-10-16T06:33:55;11.10;;;2.10;;
4698;SDS011;33708;49.466;11.176;2022-10-16T06:36:22;9.10;;;2.03;;
4698;SDS011;33708;49.466;11.176;2022-10-16T06:38:48;18.60;;;2.10;;
4698;SDS011;33708;49.466;11.176;2022-10-16T06:41:15;8.10;;;1.93;;
4698;SDS011;33708;49.466;11.176;2022-10-16T06:43:42;9.10;;;1.93;;
4698;SDS011;33708;49.466;11.176;2022-10-16T06:46:10;8.40;;;1.80;;
4698;SDS011;33708;49.466;11.176;2022-10-16T06:48:37;9.60;;;2.10;;
4698;SDS011;33708;49.466;11.176;2022-10-16T06:51:10;7.93;;;1.73;;
4698;SDS011;33708;49.466;11.176;2022-10-16T06:53:38;8.83;;;2.30;;
4698;SDS011;33708;49.466;11.176;2022-10-16T06:56:13;11.53;;;2.60;;
4698;SDS011;33708;49.466;11.176;2022-10-16T06:58:41;10.43;;;2.20;;
4698;SDS011;33708;49.466;11.176;2022-10-16T07:01:07;10.40;;;1.80;;
4698;SDS011;33708;49.466;11.176;2022-10-16T07:03:35;8.27;;;1.90;;
4698;SDS011;33708;49.466;11.176;2022-10-16T07:06:03;9.33;;;1.77;;
4698;SDS011;33708;49.466;11.176;2022-10-16T07:08:33;11.77;;;2.27;;
4698;SDS011;33708;49.466;11.176;2022-10-16T07:11:03;12.93;;;2.57;;
4698;SDS011;33708;49.466;11.176;2022-10-16T07:13:34;12.57;;;2.37;;
4698;SDS011;33708;49.466;11.176;2022-10-16T07:16:11;13.40;;;2.70;;
4698;SDS011;33708;49.466;11.176;2022-10-16T07:18:38;8.83;;;2.00;;
4698;SDS011;33708;49.466;11.176;2022-10-16T07:21:06;7.70;;;1.77;;
4698;SDS011;33708;49.466;11.176;2022-10-16T07:23:32;12.43;;;2.33;;
4698;SDS011;33708;49.466;11.176;2022-10-16T07:25:58;9.53;;;2.30;;
4698;SDS011;33708;49.466;11.176;2022-10-16T07:28:24;9.23;;;2.23;;
4698;SDS011;33708;49.466;11.176;2022-10-16T07:30:50;9.40;;;1.87;;
4698;SDS011;33708;49.466;11.176;2022-10-16T07:33:16;6.97;;;2.10;;
4698;SDS011;33708;49.466;11.176;2022-10-16T07:35:51;7.70;;;2.00;;
4698;SDS011;33708;49.466;11.176;2022-10-16T07:38:18;8.10;;;2.10;;
4698;SDS011;33708;49.466;11.176;2022-10-16T07:40:44;10.00;;;2.47;;
4698;SDS011;33708;49.466;11.176;2022-10-16T07:43:09;7.37;;;2.10;;
4698;SDS011;33708;49.466;11.176;2022-10-16T07:45:35;8.03;;;1.70;;
4698;SDS011;33708;49.466;11.176;2022-10-16T07:48:01;8.23;;;2.20;;
4698;SDS011;33708;49.466;11.176;2022-10-16T07:50:27;6.57;;;2.00;;
4698;SDS011;33708;49.466;11.176;2022-10-16T07:52:53;6.57;;;1.90;;
4698;SDS011;33708;49.466;11.176;2022-10-16T07:55:18;7.20;;;1.90;;
4698;SDS011;33708;49.466;11.176;2022-10-16T07:57:44;7.57;;;2.10;;
4698;SDS011;33708;49.466;11.176;2022-10-16T08:00:09;7.17;;;2.10;;
4698;SDS011;33708;49.466;11.176;2022-10-16T08:02:39;6.73;;;1.70;;
4698;SDS011;33708;49.466;11.176;2022-10-16T08:05:05;7.30;;;1.70;;
4698;SDS011;33708;49.466;11.176;2022-10-16T08:07:32;13.30;;;2.27;;
4698;SDS011;33708;49.466;11.176;2022-10-16T08:09:57;6.97;;;1.60;;
4698;SDS011;33708;49.466;11.176;2022-10-16T08:12:24;11.33;;;1.90;;
4698;SDS011;33708;49.466;11.176;2022-10-16T08:14:52;8.20;;;1.50;;
4698;SDS011;33708;49.466;11.176;2022-10-16T08:17:18;8.13;;;2.30;;
4698;SDS011;33708;49.466;11.176;2022-10-16T08:19:44;10.23;;;2.27;;
4698;SDS011;33708;49.466;11.176;2022-10-16T08:22:10;6.67;;;1.90;;
4698;SDS011;33708;49.466;11.176;2022-10-16T08:24:36;6.83;;;1.70;;
4698;SDS011;33708;49.466;11.176;2022-10-16T08:27:02;6.40;;;1.80;;
4698;SDS011;33708;49.466;11.176;2022-10-16T08:29:28;8.47;;;2.07;;
4698;SDS011;33708;49.466;11.176;2022-10-16T08:31:53;13.23;;;1.60;;
4698;SDS011;33708;49.466;11.176;2022-10-16T08:34:19;10.27;;;2.27;;
4698;SDS011;33708;49.466;11.176;2022-10-16T08:36:44;11.17;;;2.50;;
4698;SDS011;33708;49.466;11.176;2022-10-16T08:39:10;6.90;;;1.87;;
4698;SDS011;33708;49.466;11.176;2022-10-16T08:44:19;7.17;;;1.60;;
4698;SDS011;33708;49.466;11.176;2022-10-16T08:50:02;9.17;;;2.00;;
4698;SDS011;33708;49.466;11.176;2022-10-16T08:52:38;8.13;;;1.60;;
4698;SDS011;33708;49.466;11.176;2022-10-16T08:55:08;7.60;;;1.90;;
4698;SDS011;33708;49.466;11.176;2022-10-16T08:58:02;7.13;;;1.77;;
4698;SDS011;33708;49.466;11.176;2022-10-16T09:01:01;8.87;;;1.80;;
4698;SDS011;33708;49.466;11.176;2022-10-16T09:11:59;9.57;;;2.30;;
4698;SDS011;33708;49.466;11.176;2022-10-16T09:20:38;8.20;;;1.60;;
4698;SDS011;33708;49.466;11.176;2022-10-16T09:23:25;17.30;;;2.03;;
4698;SDS011;33708;49.466;11.176;2022-10-16T09:25:52;9.43;;;1.70;;
4698;SDS011;33708;49.466;11.176;2022-10-16T09:28:20;10.40;;;1.73;;
4698;SDS011;33708;49.466;11.176;2022-10-16T09:30:45;6.47;;;1.90;;
4698;SDS011;33708;49.466;11.176;2022-10-16T09:33:13;6.40;;;1.37;;
4698;SDS011;33708;49.466;11.176;2022-10-16T09:35:44;5.97;;;1.53;;
4698;SDS011;33708;49.466;11.176;2022-10-16T09:38:22;10.80;;;1.70;;
4698;SDS011;33708;49.466;11.176;2022-10-16T09:40:50;5.83;;;1.37;;
4698;SDS011;33708;49.466;11.176;2022-10-16T09:48:42;7.00;;;1.67;;
4698;SDS011;33708;49.466;11.176;2022-10-16T09:51:20;6.83;;;1.53;;
4698;SDS011;33708;49.466;11.176;2022-10-16T09:53:53;6.10;;;1.40;;
4698;SDS011;33708;49.466;11.176;2022-10-16T09:56:21;10.07;;;1.90;;
4698;SDS011;33708;49.466;11.176;2022-10-16T09:58:50;9.40;;;2.10;;
4698;SDS011;33708;49.466;11.176;2022-10-16T10:01:17;6.77;;;1.53;;
4698;SDS011;33708;49.466;11.176;2022-10-16T10:03:44;7.97;;;1.67;;
4698;SDS011;33708;49.466;11.176;2022-10-16T10:08:59;8.03;;;2.33;;
4698;SDS011;33708;49.466;11.176;2022-10-16T10:11:50;10.23;;;1.80;;
4698;SDS011;33708;49.466;11.176;2022-10-16T10:14:35;7.90;;;1.60;;
4698;SDS011;33708;49.466;11.176;2022-10-16T10:25:07;10.63;;;1.80;;
4698;SDS011;33708;49.466;11.176;2022-10-16T10:30:25;6.50;;;1.97;;
4698;SDS011;33708;49.466;11.176;2022-10-16T10:38:51;14.20;;;1.97;;
4698;SDS011;33708;49.466;11.176;2022-10-16T10:44:07;8.97;;;1.73;;
4698;SDS011;33708;49.466;11.176;2022-10-16T10:52:59;8.10;;;1.20;;
4698;SDS011;33708;49.466;11.176;2022-10-16T11:06:15;8.30;;;2.00;;
4698;SDS011;33708;49.466;11.176;2022-10-16T11:08:46;6.47;;;1.40;;
4698;SDS011;33708;49.466;11.176;2022-10-16T11:13:58;7.80;;;1.77;;
4698;SDS011;33708;49.466;11.176;2022-10-16T11:16:45;13.50;;;2.50;;
4698;SDS011;33708;49.466;11.176;2022-10-16T11:22:05;8.73;;;2.27;;
4698;SDS011;33708;49.466;11.176;2022-10-16T11:25:04;17.30;;;1.50;;
4698;SDS011;33708;49.466;11.176;2022-10-16T11:30:31;6.03;;;1.23;;
4698;SDS011;33708;49.466;11.176;2022-10-16T11:41:15;6.33;;;1.73;;
4698;SDS011;33708;49.466;11.176;2022-10-16T11:46:23;5.80;;;1.40;;
4698;SDS011;33708;49.466;11.176;2022-10-16T11:48:55;6.30;;;1.53;;
4698;SDS011;33708;49.466;11.176;2022-10-16T11:51:45;11.10;;;1.43;;
4698;SDS011;33708;49.466;11.176;2022-10-16T11:54:28;12.27;;;1.80;;
4698;SDS011;33708;49.466;11.176;2022-10-16T11:57:09;8.60;;;1.50;;
4698;SDS011;33708;49.466;11.176;2022-10-16T11:59:43;6.10;;;1.63;;
4698;SDS011;33708;49.466;11.176;2022-10-16T12:08:07;12.03;;;1.63;;
4698;SDS011;33708;49.466;11.176;2022-10-16T12:10:38;6.60;;;1.50;;
4698;SDS011;33708;49.466;11.176;2022-10-16T12:18:50;19.20;;;2.17;;
4698;SDS011;33708;49.466;11.176;2022-10-16T12:21:38;9.83;;;1.77;;
4698;SDS011;33708;49.466;11.176;2022-10-16T12:24:04;7.60;;;1.60;;
4698;SDS011;33708;49.466;11.176;2022-10-16T12:26:36;17.73;;;1.70;;
4698;SDS011;33708;49.466;11.176;2022-10-16T12:29:13;12.50;;;2.00;;
4698;SDS011;33708;49.466;11.176;2022-10-16T12:31:54;10.50;;;2.20;;
4698;SDS011;33708;49.466;11.176;2022-10-16T12:34:22;11.43;;;2.17;;
4698;SDS011;33708;49.466;11.176;2022-10-16T12:37:09;10.17;;;2.07;;
4698;SDS011;33708;49.466;11.176;2022-10-16T12:39:38;7.37;;;1.83;;
4698;SDS011;33708;49.466;11.176;2022-10-16T12:42:05;9.00;;;1.80;;
4698;SDS011;33708;49.466;11.176;2022-10-16T12:44:44;11.40;;;1.87;;
4698;SDS011;33708;49.466;11.176;2022-10-16T12:47:19;9.60;;;2.00;;
4698;SDS011;33708;49.466;11.176;2022-10-16T12:49:57;11.50;;;1.80;;
4698;SDS011;33708;49.466;11.176;2022-10-16T12:52:37;9.33;;;2.00;;
4698;SDS011;33708;49.466;11.176;2022-10-16T12:55:05;7.33;;;1.83;;
4698;SDS011;33708;49.466;11.176;2022-10-16T13:17:27;10.77;;;1.73;;
4698;SDS011;33708;49.466;11.176;2022-10-16T13:28:29;6.30;;;1.37;;
4698;SDS011;33708;49.466;11.176;2022-10-16T13:30:58;10.47;;;1.80;;
4698;SDS011;33708;49.466;11.176;2022-10-16T13:36:02;9.27;;;1.80;;
4698;SDS011;33708;49.466;11.176;2022-10-16T13:38:35;8.10;;;1.70;;
4698;SDS011;33708;49.466;11.176;2022-10-16T13:41:05;12.83;;;2.40;;
4698;SDS011;33708;49.466;11.176;2022-10-16T13:43:51;10.10;;;1.77;;
4698;SDS011;33708;49.466;11.176;2022-10-16T13:46:20;7.67;;;2.10;;
4698;SDS011;33708;49.466;11.176;2022-10-16T13:48:59;8.63;;;2.37;;
4698;SDS011;33708;49.466;11.176;2022-10-16T13:51:27;7.20;;;1.97;;
4698;SDS011;33708;49.466;11.176;2022-10-16T13:53:55;15.57;;;1.50;;
4698;SDS011;33708;49.466;11.176;2022-10-16T13:56:22;14.33;;;1.70;;
4698;SDS011;33708;49.466;11.176;2022-10-16T13:59:01;7.67;;;1.70;;
4698;SDS011;33708;49.466;11.176;2022-10-16T14:01:33;6.83;;;1.67;;
4698;SDS011;33708;49.466;11.176;2022-10-16T14:04:04;14.50;;;1.73;;
4698;SDS011;33708;49.466;11.176;2022-10-16T14:06:32;13.23;;;1.90;;
4698;SDS011;33708;49.466;11.176;2022-10-16T14:11:54;12.00;;;2.20;;
4698;SDS011;33708;49.466;11.176;2022-10-16T14:14:34;7.80;;;1.43;;
4698;SDS011;33708;49.466;11.176;2022-10-16T14:17:05;6.80;;;1.60;;
4698;SDS011;33708;49.466;11.176;2022-10-16T14:19:31;9.57;;;1.47;;
4698;SDS011;33708;49.466;11.176;2022-10-16T14:21:57;8.43;;;1.77;;
4698;SDS011;33708;49.466;11.176;2022-10-16T14:24:32;10.17;;;1.63;;
4698;SDS011;33708;49.466;11.176;2022-10-16T14:26:59;12.37;;;1.97;;
4698;SDS011;33708;49.466;11.176;2022-10-16T14:29:26;7.60;;;1.70;;
4698;SDS011;33708;49.466;11.176;2022-10-16T14:34:26;8.23;;;1.40;;
4698;SDS011;33708;49.466;11.176;2022-10-16T14:36:59;7.90;;;1.90;;
4698;SDS011;33708;49.466;11.176;2022-10-16T14:39:39;7.93;;;1.60;;
4698;SDS011;33708;49.466;11.176;2022-10-16T14:42:11;13.30;;;1.90;;
4698;SDS011;33708;49.466;11.176;2022-10-16T14:44:41;14.27;;;1.77;;
4698;SDS011;33708;49.466;11.176;2022-10-16T14:47:07;10.37;;;2.27;;
4698;SDS011;33708;49.466;11.176;2022-10-16T14:49:35;17.10;;;1.97;;
4698;SDS011;33708;49.466;11.176;2022-10-16T14:52:00;16.10;;;1.80;;
4698;SDS011;33708;49.466;11.176;2022-10-16T14:54:27;10.60;;;1.80;;
4698;SDS011;33708;49.466;11.176;2022-10-16T14:56:56;14.23;;;2.10;;
4698;SDS011;33708;49.466;11.176;2022-10-16T15:01:52;12.50;;;2.30;;
4698;SDS011;33708;49.466;11.176;2022-10-16T15:04:17;8.93;;;2.57;;
4698;SDS011;33708;49.466;11.176;2022-10-16T15:06:43;8.67;;;2.30;;
4698;SDS011;33708;49.466;11.176;2022-10-16T15:09:09;10.07;;;2.60;;
4698;SDS011;33708;49.466;11.176;2022-10-16T15:11:35;13.20;;;3.10;;
4698;SDS011;33708;49.466;11.176;2022-10-16T15:14:01;8.97;;;3.80;;
4698;SDS011;33708;49.466;11.176;2022-10-16T15:16:28;7.83;;;2.80;;
4698;SDS011;33708;49.466;11.176;2022-10-16T15:18:54;10.87;;;4.70;;
4698;SDS011;33708;49.466;11.176;2022-10-16T15:21:37;16.17;;;3.93;;
4698;SDS011;33708;49.466;11.176;2022-10-16T15:24:04;11.33;;;4.90;;
4698;SDS011;33708;49.466;11.176;2022-10-16T15:26:36;14.73;;;2.43;;
4698;SDS011;33708;49.466;11.176;2022-10-16T15:29:01;8.00;;;1.73;;
4698;SDS011;33708;49.466;11.176;2022-10-16T15:31:27;7.37;;;1.47;;
4698;SDS011;33708;49.466;11.176;2022-10-16T15:33:53;11.03;;;1.73;;
4698;SDS011;33708;49.466;11.176;2022-10-16T15:36:27;11.10;;;1.67;;
4698;SDS011;33708;49.466;11.176;2022-10-16T15:38:53;8.90;;;1.77;;
4698;SDS011;33708;49.466;11.176;2022-10-16T15:41:20;25.03;;;2.40;;
4698;SDS011;33708;49.466;11.176;2022-10-16T15:43:47;11.80;;;2.27;;
4698;SDS011;33708;49.466;11.176;2022-10-16T15:46:14;17.23;;;1.60;;
4698;SDS011;33708;49.466;11.176;2022-10-16T15:48:42;11.00;;;1.93;;
4698;SDS011;33708;49.466;11.176;2022-10-16T15:51:08;16.57;;;1.97;;
4698;SDS011;33708;49.466;11.176;2022-10-16T15:53:34;14.43;;;2.23;;
4698;SDS011;33708;49.466;11.176;2022-10-16T15:56:06;7.40;;;1.97;;
4698;SDS011;33708;49.466;11.176;2022-10-16T15:58:33;8.63;;;1.97;;
4698;SDS011;33708;49.466;11.176;2022-10-16T16:01:00;8.00;;;1.93;;
4698;SDS011;33708;49.466;11.176;2022-10-16T16:03:26;17.40;;;2.43;;
4698;SDS011;33708;49.466;11.176;2022-10-16T16:05:53;10.70;;;2.10;;
4698;SDS011;33708;49.466;11.176;2022-10-16T16:08:19;16.63;;;2.23;;
4698;SDS011;33708;49.466;11.176;2022-10-16T16:10:56;7.70;;;1.77;;
4698;SDS011;33708;49.466;11.176;2022-10-16T16:13:25;23.73;;;2.83;;
4698;SDS011;33708;49.466;11.176;2022-10-16T16:15:51;25.17;;;2.23;;
4698;SDS011;33708;49.466;11.176;2022-10-16T16:18:17;11.43;;;2.70;;
4698;SDS011;33708;49.466;11.176;2022-10-16T16:20:43;18.73;;;2.40;;
4698;SDS011;33708;49.466;11.176;2022-10-16T16:23:08;15.53;;;2.90;;
4698;SDS011;33708;49.466;11.176;2022-10-16T16:25:34;13.33;;;1.90;;
4698;SDS011;33708;49.466;11.176;2022-10-16T16:28:00;10.60;;;2.03;;
4698;SDS011;33708;49.466;11.176;2022-10-16T16:30:25;11.57;;;2.00;;
4698;SDS011;33708;49.466;11.176;2022-10-16T16:32:51;10.27;;;2.40;;
4698;SDS011;33708;49.466;11.176;2022-10-16T16:35:17;15.37;;;3.90;;
4698;SDS011;33708;49.466;11.176;2022-10-16T16:37:42;11.00;;;3.40;;
4698;SDS011;33708;49.466;11.176;2022-10-16T16:40:08;21.57;;;2.80;;
4698;SDS011;33708;49.466;11.176;2022-10-16T16:42:33;12.80;;;2.67;;
4698;SDS011;33708;49.466;11.176;2022-10-16T16:44:59;15.20;;;2.03;;
4698;SDS011;33708;49.466;11.176;2022-10-16T16:47:25;14.00;;;2.60;;
4698;SDS011;33708;49.466;11.176;2022-10-16T16:49:50;8.50;;;2.00;;
4698;SDS011;33708;49.466;11.176;2022-10-16T16:52:16;11.43;;;1.80;;
4698;SDS011;33708;49.466;11.176;2022-10-16T16:54:42;8.43;;;1.50;;
4698;SDS011;33708;49.466;11.176;2022-10-16T16:57:09;9.50;;;2.43;;
4698;SDS011;33708;49.466;11.176;2022-10-16T16:59:35;10.03;;;1.80;;
4698;SDS011;33708;49.466;11.176;2022-10-16T17:02:01;33.33;;;18.43;;
4698;SDS011;33708;49.466;11.176;2022-10-16T17:04:27;51.03;;;27.97;;
4698;SDS011;33708;49.466;11.176;2022-10-16T17:06:53;48.97;;;30.10;;
4698;SDS011;33708;49.466;11.176;2022-10-16T17:09:19;31.33;;;19.20;;
4698;SDS011;33708;49.466;11.176;2022-10-16T17:11:45;21.97;;;7.07;;
4698;SDS011;33708;49.466;11.176;2022-10-16T17:14:12;14.00;;;4.10;;
4698;SDS011;33708;49.466;11.176;2022-10-16T17:16:39;18.53;;;6.40;;
4698;SDS011;33708;49.466;11.176;2022-10-16T17:19:09;21.07;;;4.90;;